Time;durP1;ratioP1;P1;durP2;ratioP2;P2;SDS_P1;SDS_P2;PMS_P1;PMS_P2;Temp;Humidity;BMP_temperature;BMP_pressure;BME280_temperature;BME280_humidity;BME280_pressure;Samples;Min_cycle;Max_cycle;Signal;HPM_P1;HPM_P2
2023/10/23 00:02:25;;;;;;;3.08;2.65;;;18.70;76.80;;;;;;5006643;28;20188;-69
2023/10/23 00:04:51;;;;;;;3.10;2.70;;;18.70;76.80;;;;;;5029719;28;20206;-69
2023/10/23 00:07:17;;;;;;;3.00;2.70;;;18.70;76.80;;;;;;5027193;28;20198;-68
2023/10/23 00:09:43;;;;;;;2.85;2.50;;;18.60;76.60;;;;;;5039710;28;20213;-69
2023/10/23 00:12:09;;;;;;;2.78;2.45;;;18.70;76.80;;;;;;5024129;28;20265;-69
2023/10/23 00:14:35;;;;;;;2.55;2.35;;;18.70;76.80;;;;;;5019696;28;20200;-69
2023/10/23 00:17:01;;;;;;;2.97;2.25;;;18.70;76.80;;;;;;5012289;28;20179;-69
2023/10/23 00:19:27;;;;;;;2.72;2.45;;;18.70;76.80;;;;;;5031622;28;20222;-69
2023/10/23 00:21:53;;;;;;;2.65;2.45;;;18.70;76.80;;;;;;4999083;28;20191;-69
2023/10/23 00:24:19;;;;;;;2.40;2.20;;;18.70;76.80;;;;;;5029675;28;20206;-69
2023/10/23 00:26:45;;;;;;;3.10;2.45;;;18.70;76.70;;;;;;5020762;28;20191;-69
2023/10/23 00:29:11;;;;;;;2.83;2.45;;;18.60;76.60;;;;;;4999858;28;20585;-68
2023/10/23 00:31:37;;;;;;;2.92;2.47;;;18.70;76.80;;;;;;5052335;28;20658;-69
2023/10/23 00:34:03;;;;;;;3.75;2.33;;;18.70;76.70;;;;;;5023583;28;20269;-69
2023/10/23 00:36:28;;;;;;;2.88;2.30;;;18.60;76.80;;;;;;5025931;28;20187;-69
2023/10/23 00:38:54;;;;;;;2.58;2.38;;;18.70;76.70;;;;;;5002081;28;20191;-69
2023/10/23 00:41:20;;;;;;;3.60;2.45;;;18.70;76.60;;;;;;5015248;28;20195;-69
2023/10/23 00:43:46;;;;;;;2.65;2.15;;;18.70;76.60;;;;;;5026273;28;20199;-69
2023/10/23 00:46:19;;;;;;;2.50;2.30;;;18.70;76.60;;;;;;5025838;28;20661;-69
2023/10/23 00:48:47;;;;;;;2.75;2.25;;;18.60;76.50;;;;;;5037974;28;20186;-68
2023/10/23 00:51:16;;;;;;;2.53;2.30;;;18.70;76.60;;;;;;5008846;28;20183;-69
2023/10/23 00:53:43;;;;;;;2.33;2.10;;;18.70;76.60;;;;;;5031987;28;20203;-69
2023/10/23 00:56:10;;;;;;;2.22;2.03;;;18.70;76.60;;;;;;5003027;28;20238;-69
2023/10/23 00:58:41;;;;;;;2.13;1.95;;;18.70;76.60;;;;;;5019048;28;20238;-69
2023/10/23 01:01:12;;;;;;;3.00;2.10;;;18.60;76.60;;;;;;5010661;28;20188;-68
2023/10/23 01:03:42;;;;;;;2.38;2.17;;;18.60;76.60;;;;;;5025965;28;20211;-69
2023/10/23 01:06:09;;;;;;;2.60;2.40;;;18.60;76.50;;;;;;5006354;28;20183;-69
2023/10/23 01:08:36;;;;;;;3.08;2.22;;;18.60;76.50;;;;;;5018302;28;20228;-68
2023/10/23 01:11:02;;;;;;;2.28;1.98;;;18.60;76.60;;;;;;5041484;28;20207;-68
2023/10/23 01:13:28;;;;;;;2.10;1.90;;;18.60;76.50;;;;;;5013310;28;20218;-69
2023/10/23 01:15:54;;;;;;;2.00;1.80;;;18.60;76.50;;;;;;5011401;28;20192;-69
2023/10/23 01:18:20;;;;;;;2.40;1.88;;;18.60;76.50;;;;;;5023409;28;20197;-69
2023/10/23 01:20:47;;;;;;;2.03;1.83;;;18.60;76.50;;;;;;5017149;28;20184;-69
2023/10/23 01:23:13;;;;;;;1.75;1.65;;;18.60;76.60;;;;;;5019360;28;20199;-69
2023/10/23 01:25:38;;;;;;;1.70;1.60;;;18.60;76.50;;;;;;5009050;28;20236;-69
2023/10/23 01:28:05;;;;;;;2.40;1.83;;;18.60;76.30;;;;;;5035975;28;20213;-69
2023/10/23 01:30:32;;;;;;;2.17;1.98;;;18.70;76.40;;;;;;5031363;28;20710;-69
2023/10/23 01:32:58;;;;;;;2.20;2.00;;;18.60;76.30;;;;;;5020436;28;20207;-69
2023/10/23 01:35:24;;;;;;;1.70;1.60;;;18.60;76.30;;;;;;4999521;28;20240;-69
2023/10/23 01:37:51;;;;;;;2.40;2.00;;;18.60;76.40;;;;;;5037395;28;20176;-69
2023/10/23 01:40:18;;;;;;;2.25;1.90;;;18.60;76.20;;;;;;5013051;28;20182;-69
2023/10/23 01:42:46;;;;;;;2.50;2.30;;;18.60;76.40;;;;;;5031995;28;20190;-69
2023/10/23 01:45:12;;;;;;;2.28;1.67;;;18.60;76.20;;;;;;5031312;28;20255;-69
2023/10/23 01:47:38;;;;;;;2.40;1.85;;;18.60;76.30;;;;;;5024888;28;20214;-69
2023/10/23 01:50:05;;;;;;;2.28;2.03;;;18.60;76.30;;;;;;5031981;28;20253;-69
2023/10/23 01:52:31;;;;;;;1.80;1.70;;;18.60;76.30;;;;;;5006197;28;20228;-69
2023/10/23 01:54:58;;;;;;;2.10;1.90;;;18.60;76.40;;;;;;5042391;28;20198;-69
2023/10/23 01:57:24;;;;;;;1.90;1.70;;;18.60;76.30;;;;;;5028817;28;20190;-69
2023/10/23 01:59:50;;;;;;;2.08;1.90;;;18.60;76.30;;;;;;5009557;28;20556;-69
2023/10/23 02:02:15;;;;;;;1.88;1.77;;;18.60;76.30;;;;;;5030010;28;20178;-69
2023/10/23 02:04:41;;;;;;;2.50;1.85;;;18.60;76.20;;;;;;5001198;28;20203;-69
2023/10/23 02:07:07;;;;;;;1.70;1.60;;;18.60;76.30;;;;;;5010778;28;20188;-69
2023/10/23 02:09:33;;;;;;;3.15;1.88;;;18.60;76.40;;;;;;5029853;28;20207;-69
2023/10/23 02:12:00;;;;;;;1.60;1.50;;;18.60;76.30;;;;;;5024279;28;20182;-69
2023/10/23 02:14:27;;;;;;;2.00;1.80;;;18.60;76.20;;;;;;5013424;28;20213;-69
2023/10/23 02:16:52;;;;;;;1.92;1.60;;;18.60;76.20;;;;;;5010497;28;20176;-69
2023/10/23 02:19:18;;;;;;;1.77;1.67;;;18.60;76.10;;;;;;5020767;28;20183;-69
2023/10/23 02:21:49;;;;;;;2.22;1.80;;;18.60;76.10;;;;;;5001661;28;20263;-69
2023/10/23 02:24:19;;;;;;;2.63;2.05;;;18.60;76.20;;;;;;5028705;28;20210;-69
2023/10/23 02:26:46;;;;;;;1.58;1.48;;;18.60;76.10;;;;;;5019921;28;20194;-69
2023/10/23 02:29:12;;;;;;;1.83;1.65;;;18.60;76.10;;;;;;5003992;28;20208;-69
2023/10/23 02:31:38;;;;;;;1.60;1.50;;;18.60;76.10;;;;;;5046388;28;20182;-69
2023/10/23 02:34:05;;;;;;;2.00;1.40;;;18.60;76.10;;;;;;5049234;28;20210;-69
2023/10/23 02:36:31;;;;;;;1.67;1.58;;;18.60;76.10;;;;;;4997278;28;20183;-69
2023/10/23 02:38:57;;;;;;;1.40;1.30;;;18.60;76.10;;;;;;5044117;28;20250;-68
2023/10/23 02:41:23;;;;;;;1.50;1.40;;;18.60;76.10;;;;;;5003629;28;20630;-69
2023/10/23 02:43:49;;;;;;;2.10;1.77;;;18.60;76.10;;;;;;5002492;28;20290;-69
2023/10/23 02:46:16;;;;;;;2.13;1.60;;;18.60;76.00;;;;;;5014353;28;20187;-69
2023/10/23 02:48:42;;;;;;;2.10;1.80;;;18.60;76.20;;;;;;5034733;28;20179;-68
2023/10/23 02:51:08;;;;;;;1.63;1.52;;;18.60;76.20;;;;;;5017544;28;20191;-69
2023/10/23 02:53:35;;;;;;;1.65;1.25;;;18.60;76.10;;;;;;5017052;28;20662;-69
2023/10/23 02:56:00;;;;;;;1.60;1.50;;;18.60;76.00;;;;;;5019554;28;20186;-69
2023/10/23 02:58:27;;;;;;;1.50;1.40;;;18.60;76.00;;;;;;5034699;28;20206;-69
2023/10/23 03:00:53;;;;;;;1.63;1.40;;;18.60;76.10;;;;;;4998925;28;20175;-69
2023/10/23 03:03:22;;;;;;;1.15;1.05;;;18.50;76.00;;;;;;5016686;28;20187;-69
2023/10/23 03:05:48;;;;;;;1.58;1.48;;;18.60;75.90;;;;;;5001033;28;20179;-69
2023/10/23 03:08:14;;;;;;;2.65;1.52;;;18.60;75.90;;;;;;5016739;28;20571;-69
2023/10/23 03:10:40;;;;;;;1.58;1.48;;;18.60;75.90;;;;;;5022978;28;20212;-69
2023/10/23 03:13:07;;;;;;;1.60;1.20;;;18.60;76.00;;;;;;5016659;28;20187;-69
2023/10/23 03:15:33;;;;;;;1.55;1.45;;;18.60;75.80;;;;;;5022761;28;20205;-69
2023/10/23 03:18:03;;;;;;;1.67;1.50;;;18.60;75.80;;;;;;5039722;28;20270;-69
2023/10/23 03:20:32;;;;;;;1.58;1.38;;;18.60;75.80;;;;;;5023824;28;20223;-69
2023/10/23 03:22:58;;;;;;;1.30;1.15;;;18.60;75.80;;;;;;5021049;28;20191;-69
2023/10/23 03:25:24;;;;;;;1.35;1.15;;;18.50;75.80;;;;;;5022242;28;20276;-69
2023/10/23 03:27:50;;;;;;;1.40;1.30;;;18.60;75.90;;;;;;4996980;28;20212;-69
2023/10/23 03:30:16;;;;;;;2.05;1.20;;;18.50;75.70;;;;;;5020461;28;20290;-69
2023/10/23 03:32:42;;;;;;;1.92;1.17;;;18.60;75.80;;;;;;5030364;28;20270;-69
2023/10/23 03:35:08;;;;;;;1.30;1.20;;;18.60;75.80;;;;;;5016578;28;20214;-69
2023/10/23 03:37:34;;;;;;;1.40;1.30;;;18.60;75.80;;;;;;5014296;28;20187;-69
2023/10/23 03:40:00;;;;;;;1.52;1.42;;;18.50;75.90;;;;;;5012926;28;20254;-69
2023/10/23 03:42:26;;;;;;;1.52;1.33;;;18.50;75.70;;;;;;5004105;28;20594;-69
2023/10/23 03:44:51;;;;;;;1.60;1.50;;;18.50;75.70;;;;;;5029732;28;20210;-68
2023/10/23 03:47:17;;;;;;;1.42;1.20;;;18.50;75.70;;;;;;4998054;28;20560;-68
2023/10/23 03:49:43;;;;;;;2.78;2.03;;;18.50;75.70;;;;;;5015926;28;20222;-69
2023/10/23 03:52:09;;;;;;;1.65;1.40;;;18.50;75.70;;;;;;5031020;28;20194;-69
2023/10/23 03:54:36;;;;;;;1.90;1.30;;;18.50;75.60;;;;;;5015177;28;20265;-69
2023/10/23 03:57:02;;;;;;;1.38;1.25;;;18.50;75.60;;;;;;5001587;28;20207;-69
2023/10/23 03:59:28;;;;;;;1.58;1.40;;;18.50;75.60;;;;;;4999264;28;20195;-69
2023/10/23 04:01:54;;;;;;;1.48;1.38;;;18.50;75.60;;;;;;5025492;28;20213;-69
2023/10/23 04:04:20;;;;;;;2.05;1.55;;;18.50;75.60;;;;;;5017082;28;20214;-69
2023/10/23 04:06:45;;;;;;;1.40;1.30;;;18.50;75.60;;;;;;5021425;28;20191;-69
2023/10/23 04:09:11;;;;;;;1.55;1.33;;;18.50;75.50;;;;;;5013084;28;20587;-68
2023/10/23 04:11:37;;;;;;;1.38;1.27;;;18.50;75.50;;;;;;5038765;28;20260;-69
2023/10/23 04:14:04;;;;;;;1.23;1.13;;;18.50;75.40;;;;;;5012136;28;20208;-69
2023/10/23 04:16:29;;;;;;;2.30;1.40;;;18.50;75.50;;;;;;5015933;28;20191;-69
2023/10/23 04:18:55;;;;;;;1.42;1.33;;;18.50;75.50;;;;;;5004084;28;20271;-69
2023/10/23 04:21:21;;;;;;;1.63;1.52;;;18.50;75.40;;;;;;5033198;28;20552;-69
2023/10/23 04:23:47;;;;;;;1.85;1.40;;;18.50;75.50;;;;;;5001174;28;20231;-68
2023/10/23 04:26:12;;;;;;;1.70;1.50;;;18.50;75.50;;;;;;5024093;28;20206;-68
2023/10/23 04:28:38;;;;;;;1.20;1.10;;;18.50;75.50;;;;;;5018727;28;20214;-69
2023/10/23 04:31:04;;;;;;;1.30;1.17;;;18.50;75.20;;;;;;5023963;28;20183;-69
2023/10/23 04:33:30;;;;;;;2.15;1.60;;;18.50;75.30;;;;;;5023324;28;20653;-69
2023/10/23 04:35:58;;;;;;;1.40;1.30;;;18.50;75.50;;;;;;5002616;28;20206;-69
2023/10/23 04:38:25;;;;;;;1.60;1.50;;;18.50;75.50;;;;;;5020255;28;20195;-68
2023/10/23 04:40:55;;;;;;;1.30;1.20;;;18.50;75.50;;;;;;5018491;28;20187;-69
2023/10/23 04:43:21;;;;;;;1.65;1.50;;;18.50;75.50;;;;;;5038919;28;20276;-68
2023/10/23 04:45:48;;;;;;;1.83;1.60;;;18.50;75.40;;;;;;5008432;28;20183;-69
2023/10/23 04:48:14;;;;;;;2.58;1.60;;;18.50;75.30;;;;;;5017882;28;20195;-69
2023/10/23 04:50:40;;;;;;;1.70;1.60;;;18.50;75.30;;;;;;5019214;28;20286;-69
2023/10/23 04:53:06;;;;;;;1.75;1.35;;;18.50;75.30;;;;;;5035670;28;20233;-69
2023/10/23 04:55:38;;;;;;;1.67;1.38;;;18.50;76.10;;;;;;5017444;28;20244;-69
2023/10/23 04:58:05;;;;;;;1.73;1.40;;;18.50;75.20;;;;;;4999055;28;20180;-69
2023/10/23 05:00:38;;;;;;;1.60;1.50;;;18.50;75.20;;;;;;5032672;28;20192;-68
2023/10/23 05:03:04;;;;;;;2.15;1.30;;;18.50;75.20;;;;;;5036565;28;20179;-68
2023/10/23 05:05:31;;;;;;;1.70;1.60;;;18.50;75.20;;;;;;5014684;28;20211;-68
2023/10/23 05:07:57;;;;;;;2.25;1.52;;;18.50;75.20;;;;;;5030072;28;20206;-68
2023/10/23 05:10:23;;;;;;;2.20;1.60;;;18.50;75.20;;;;;;5003479;28;20297;-70
2023/10/23 05:12:49;;;;;;;1.77;1.50;;;18.50;75.20;;;;;;5021283;28;20274;-69
2023/10/23 05:15:17;;;;;;;2.03;1.83;;;18.50;75.20;;;;;;5037484;28;20703;-69
2023/10/23 05:17:43;;;;;;;2.10;1.50;;;18.50;75.20;;;;;;5020152;28;20250;-70
2023/10/23 05:20:10;;;;;;;1.73;1.60;;;18.50;75.20;;;;;;5024681;28;20244;-69
2023/10/23 05:22:35;;;;;;;1.88;1.52;;;18.50;75.20;;;;;;5040180;28;20245;-70
2023/10/23 05:25:01;;;;;;;2.00;1.70;;;18.50;75.20;;;;;;5026568;28;20210;-69
2023/10/23 05:27:27;;;;;;;1.92;1.60;;;18.50;75.30;;;;;;5019563;28;20187;-69
2023/10/23 05:29:53;;;;;;;2.22;1.52;;;18.50;75.20;;;;;;5035257;28;20207;-69
2023/10/23 05:32:18;;;;;;;1.55;1.40;;;18.50;75.20;;;;;;5035121;28;20190;-69
2023/10/23 05:34:45;;;;;;;1.80;1.70;;;18.50;75.20;;;;;;5038341;28;20238;-69
2023/10/23 05:37:11;;;;;;;1.77;1.60;;;18.50;75.20;;;;;;5018082;28;20192;-69
2023/10/23 05:39:37;;;;;;;1.95;1.83;;;18.50;75.20;;;;;;4998537;28;20195;-69
2023/10/23 05:42:04;;;;;;;1.88;1.67;;;18.50;75.20;;;;;;5040021;28;20192;-69
2023/10/23 05:44:30;;;;;;;2.17;1.67;;;18.50;75.20;;;;;;5035774;28;20223;-69
2023/10/23 05:46:55;;;;;;;2.20;1.90;;;18.50;75.20;;;;;;5022595;28;20191;-69
2023/10/23 05:49:21;;;;;;;1.67;1.58;;;18.50;75.20;;;;;;5035728;28;20210;-69
2023/10/23 05:51:47;;;;;;;2.00;1.80;;;18.50;75.20;;;;;;5041384;28;20194;-69
2023/10/23 05:54:14;;;;;;;2.13;1.95;;;18.50;75.20;;;;;;5013557;28;20208;-69
2023/10/23 05:56:40;;;;;;;1.50;1.40;;;18.40;75.00;;;;;;5018293;28;20175;-69
2023/10/23 05:59:06;;;;;;;2.38;2.10;;;18.50;75.20;;;;;;5010562;28;20663;-69
2023/10/23 06:01:32;;;;;;;2.75;1.80;;;18.50;75.00;;;;;;5025405;28;20240;-69
2023/10/23 06:03:57;;;;;;;2.00;1.90;;;18.50;75.10;;;;;;5022282;28;20215;-69
2023/10/23 06:06:23;;;;;;;2.03;1.83;;;18.50;75.00;;;;;;5001385;28;20186;-69
2023/10/23 06:08:49;;;;;;;1.92;1.60;;;18.50;75.20;;;;;;5015253;28;20196;-69
2023/10/23 06:11:15;;;;;;;2.80;1.90;;;18.50;75.10;;;;;;5033783;28;20183;-69
2023/10/23 06:13:40;;;;;;;1.90;1.70;;;18.50;75.20;;;;;;5025694;28;20577;-69
2023/10/23 06:16:07;;;;;;;2.20;1.90;;;18.50;75.20;;;;;;5017803;28;20187;-69
2023/10/23 06:18:38;;;;;;;2.58;1.42;;;18.50;75.10;;;;;;5030481;28;20171;-69
2023/10/23 06:21:06;;;;;;;1.90;1.80;;;18.40;75.00;;;;;;5025548;28;20188;-69
2023/10/23 06:23:40;;;;;;;2.08;1.70;;;18.50;75.10;;;;;;5021362;28;20183;-69
2023/10/23 06:26:07;;;;;;;1.95;1.52;;;18.40;75.00;;;;;;5039273;28;20224;-68
2023/10/23 06:28:34;;;;;;;1.80;1.70;;;18.50;75.10;;;;;;5034776;28;20187;-69
2023/10/23 06:31:10;;;;;;;2.58;1.77;;;18.50;75.10;;;;;;5020556;28;20213;-69
2023/10/23 06:33:42;;;;;;;2.58;2.10;;;18.50;74.90;;;;;;4999646;28;20241;-69
2023/10/23 06:36:09;;;;;;;2.17;1.70;;;18.40;75.70;;;;;;5031963;28;20678;-69
2023/10/23 06:38:38;;;;;;;2.72;2.10;;;18.50;75.00;;;;;;5020874;28;20275;-69
2023/10/23 06:41:05;;;;;;;2.22;1.85;;;18.50;75.00;;;;;;5038561;28;20184;-69
2023/10/23 06:43:32;;;;;;;2.65;1.80;;;18.50;74.90;;;;;;5015976;28;20198;-69
2023/10/23 06:45:58;;;;;;;2.10;1.83;;;18.50;75.00;;;;;;5020861;28;20191;-69
2023/10/23 06:48:24;;;;;;;1.63;1.52;;;18.50;75.00;;;;;;5023917;28;20197;-69
2023/10/23 06:50:50;;;;;;;2.08;1.90;;;18.50;74.90;;;;;;5038232;28;20207;-69
2023/10/23 06:53:17;;;;;;;2.83;2.33;;;18.50;75.00;;;;;;5020554;28;20192;-69
2023/10/23 06:55:54;;;;;;;2.30;2.10;;;18.40;74.90;;;;;;5038263;28;20305;-69
2023/10/23 06:58:21;;;;;;;1.88;1.75;;;18.50;75.10;;;;;;5025399;28;20186;-69
2023/10/23 07:00:48;;;;;;;2.30;2.08;;;18.50;75.00;;;;;;5021009;28;20225;-69
2023/10/23 07:03:14;;;;;;;2.10;1.90;;;18.50;75.00;;;;;;5022401;28;20182;-69
2023/10/23 07:05:41;;;;;;;1.90;1.80;;;18.50;75.10;;;;;;5019146;28;20222;-69
2023/10/23 07:08:07;;;;;;;2.25;2.05;;;18.50;75.00;;;;;;5019959;28;20190;-69
2023/10/23 07:10:34;;;;;;;1.92;1.73;;;18.50;75.00;;;;;;5025249;28;20290;-69
2023/10/23 07:13:00;;;;;;;1.85;1.70;;;18.50;75.10;;;;;;5037502;28;20192;-69
2023/10/23 07:15:26;;;;;;;1.90;1.73;;;18.50;75.10;;;;;;5040874;28;20207;-70
2023/10/23 07:17:52;;;;;;;1.73;1.63;;;18.50;75.00;;;;;;5007886;28;20187;-69
2023/10/23 07:20:18;;;;;;;1.75;1.65;;;18.50;75.00;;;;;;5039124;28;20274;-69
2023/10/23 07:22:44;;;;;;;1.95;1.60;;;18.50;75.10;;;;;;5008642;28;20256;-69
2023/10/23 07:25:11;;;;;;;1.73;1.63;;;18.50;75.10;;;;;;5033197;28;20222;-69
2023/10/23 07:27:37;;;;;;;2.05;1.95;;;18.50;75.10;;;;;;5024898;28;20241;-69
2023/10/23 07:30:06;;;;;;;1.70;1.60;;;18.50;75.20;;;;;;5019298;28;20211;-69
2023/10/23 07:32:34;;;;;;;1.77;1.67;;;18.60;75.30;;;;;;5033685;28;20209;-69
2023/10/23 07:35:00;;;;;;;1.80;1.70;;;18.50;75.10;;;;;;5035935;28;20210;-69
2023/10/23 07:37:27;;;;;;;1.83;1.48;;;18.50;75.20;;;;;;5006006;28;20293;-69
2023/10/23 07:39:53;;;;;;;1.63;1.52;;;18.50;75.20;;;;;;5037620;28;20219;-69
2023/10/23 07:42:19;;;;;;;1.88;1.60;;;18.50;75.20;;;;;;5025874;28;20268;-69
2023/10/23 07:44:45;;;;;;;1.58;1.48;;;18.60;75.30;;;;;;5016274;28;20229;-69
2023/10/23 07:47:12;;;;;;;2.35;1.60;;;18.50;75.20;;;;;;5040331;28;20190;-69
2023/10/23 07:49:37;;;;;;;1.67;1.58;;;18.60;75.30;;;;;;5036375;28;20712;-69
2023/10/23 07:52:04;;;;;;;1.73;1.60;;;18.60;75.30;;;;;;5022273;28;20183;-69
2023/10/23 07:54:31;;;;;;;1.98;1.83;;;18.50;75.20;;;;;;5015491;28;20597;-69
2023/10/23 07:56:57;;;;;;;1.55;1.38;;;18.60;75.40;;;;;;5018275;28;20206;-69
2023/10/23 07:59:23;;;;;;;1.52;1.30;;;18.60;75.40;;;;;;5035960;28;20195;-69
2023/10/23 08:01:52;;;;;;;2.17;1.50;;;18.60;75.40;;;;;;5038569;28;20237;-69
2023/10/23 08:04:20;;;;;;;1.60;1.50;;;18.60;75.40;;;;;;5000975;28;20229;-69
2023/10/23 08:06:46;;;;;;;1.50;1.40;;;18.60;75.40;;;;;;5004348;28;20190;-69
2023/10/23 08:09:12;;;;;;;1.58;1.48;;;18.60;75.40;;;;;;5036835;28;20236;-69
2023/10/23 08:11:38;;;;;;;1.90;1.60;;;18.60;75.40;;;;;;5017719;28;20184;-69
2023/10/23 08:14:04;;;;;;;1.65;1.50;;;18.60;75.40;;;;;;5043755;28;20206;-69
2023/10/23 08:16:30;;;;;;;1.83;1.50;;;18.60;75.40;;;;;;5038837;28;20237;-69
2023/10/23 08:18:57;;;;;;;1.63;1.30;;;18.60;75.40;;;;;;5019318;28;20180;-69
2023/10/23 08:21:26;;;;;;;1.80;1.45;;;18.60;75.40;;;;;;5042627;28;20261;-69
2023/10/23 08:23:56;;;;;;;2.00;1.35;;;18.60;75.40;;;;;;5041190;28;20217;-69
2023/10/23 08:26:23;;;;;;;1.70;1.60;;;18.60;75.30;;;;;;5021008;28;20282;-69
2023/10/23 08:28:49;;;;;;;1.58;1.40;;;18.60;75.40;;;;;;5015221;28;20188;-69
2023/10/23 08:31:16;;;;;;;2.22;1.35;;;18.60;75.40;;;;;;5037092;28;20207;-69
2023/10/23 08:33:42;;;;;;;1.23;1.13;;;18.60;75.40;;;;;;5018667;28;20257;-69
2023/10/23 08:36:07;;;;;;;1.88;1.30;;;18.60;75.40;;;;;;4998757;28;20183;-69
2023/10/23 08:38:33;;;;;;;1.42;1.33;;;18.60;75.50;;;;;;5019337;28;20215;-69
2023/10/23 08:41:02;;;;;;;1.63;1.52;;;18.60;75.50;;;;;;5017141;28;20192;-69
2023/10/23 08:43:29;;;;;;;1.38;1.27;;;18.70;75.60;;;;;;5000088;28;20184;-69
2023/10/23 08:46:00;;;;;;;1.00;1.00;;;18.70;75.60;;;;;;5014840;28;20187;-69
2023/10/23 08:48:27;;;;;;;1.23;1.13;;;18.70;75.60;;;;;;5019631;28;20202;-69
2023/10/23 08:50:57;;;;;;;1.40;1.30;;;18.60;75.60;;;;;;5029521;28;20266;-69
2023/10/23 08:53:31;;;;;;;1.13;1.13;;;18.60;75.60;;;;;;5014114;28;20183;-69
2023/10/23 08:56:02;;;;;;;1.17;1.10;;;18.70;75.70;;;;;;5033121;28;20174;-69
2023/10/23 08:58:31;;;;;;;1.02;1.02;;;18.60;75.60;;;;;;5016599;28;20184;-69
2023/10/23 09:00:57;;;;;;;1.13;1.02;;;18.70;75.60;;;;;;5034016;28;20179;-69
2023/10/23 09:03:26;;;;;;;1.48;1.20;;;18.70;75.60;;;;;;5006319;28;20175;-69
2023/10/23 09:06:22;;;;;;;1.50;1.30;;;18.70;75.60;;;;;;5195847;27;21024;-71
2023/10/23 09:08:48;;;;;;;1.40;1.30;;;18.70;75.60;;;;;;5155906;27;20292;-70
2023/10/23 09:11:14;;;;;;;1.63;1.33;;;18.70;75.70;;;;;;5150776;27;20246;-71
2023/10/23 09:13:41;;;;;;;1.88;1.30;;;18.70;75.70;;;;;;5144283;27;20216;-71
2023/10/23 09:16:10;;;;;;;1.77;1.30;;;18.70;75.70;;;;;;5150389;27;20235;-70
2023/10/23 09:18:51;;;;;;;2.58;1.20;;;18.60;75.60;;;;;;5133739;27;20266;-70
2023/10/23 09:21:17;;;;;;;1.77;1.35;;;18.70;75.70;;;;;;5133281;27;20233;-70
2023/10/23 09:23:56;;;;;;;1.50;1.40;;;18.60;75.60;;;;;;5114498;27;20195;-71
2023/10/23 09:26:24;;;;;;;0.90;0.90;;;18.70;75.70;;;;;;5148912;27;20193;-70
2023/10/23 09:28:52;;;;;;;1.40;1.17;;;18.60;75.60;;;;;;5131750;27;20227;-70
2023/10/23 09:31:20;;;;;;;1.13;1.05;;;18.70;75.70;;;;;;5114454;27;20179;-71
2023/10/23 09:33:48;;;;;;;1.23;1.13;;;18.70;75.70;;;;;;5131799;27;20217;-71
2023/10/23 09:36:15;;;;;;;1.38;1.20;;;18.70;76.50;;;;;;5131806;27;20236;-71
2023/10/23 09:39:00;;;;;;;1.77;1.10;;;18.70;75.70;;;;;;5131480;27;20269;-70
2023/10/23 09:41:27;;;;;;;1.40;1.05;;;18.70;75.70;;;;;;5130793;27;20270;-71
2023/10/23 09:43:57;;;;;;;2.08;1.15;;;18.70;75.80;;;;;;5131416;27;20365;-70
2023/10/23 09:46:29;;;;;;;1.25;1.00;;;18.70;75.70;;;;;;5117581;27;20614;-71
2023/10/23 09:48:59;;;;;;;1.30;1.17;;;18.70;75.70;;;;;;5114244;27;20190;-71
2023/10/23 09:51:39;;;;;;;1.35;1.25;;;18.70;75.70;;;;;;5148726;27;20546;-71
2023/10/23 09:54:17;;;;;;;0.90;0.90;;;18.70;75.70;;;;;;5131960;27;20810;-71
2023/10/23 09:56:54;;;;;;;0.90;0.90;;;18.70;75.80;;;;;;5104918;28;20192;-70
2023/10/23 09:59:39;;;;;;;1.30;1.20;;;18.70;75.80;;;;;;5131245;27;20641;-71
2023/10/23 10:02:09;;;;;;;1.13;1.02;;;18.70;75.70;;;;;;5149265;27;20191;-70
2023/10/23 10:05:05;;;;;;;1.60;1.20;;;18.70;75.70;;;;;;5132017;27;20210;-71
2023/10/23 10:08:02;;;;;;;1.10;1.10;;;18.70;75.70;;;;;;5149186;27;20235;-71
2023/10/23 10:10:30;;;;;;;1.35;1.10;;;18.70;75.70;;;;;;5138971;27;20208;-70
2023/10/23 10:12:56;;;;;;;1.17;1.08;;;18.70;75.70;;;;;;5157774;27;20206;-71
2023/10/23 10:15:24;;;;;;;0.95;0.90;;;18.70;75.70;;;;;;5132035;27;20293;-70
2023/10/23 10:17:50;;;;;;;2.08;0.93;;;18.70;75.70;;;;;;5122329;27;20179;-71
2023/10/23 10:20:21;;;;;;;1.10;0.93;;;18.80;75.80;;;;;;5145265;27;20274;-71
2023/10/23 10:23:02;;;;;;;1.10;1.00;;;18.80;75.80;;;;;;5135304;27;20183;-71
2023/10/23 10:25:30;;;;;;;1.15;1.05;;;18.80;75.80;;;;;;5133681;27;20276;-71
2023/10/23 10:28:05;;;;;;;1.20;1.10;;;18.80;75.80;;;;;;5116945;27;20186;-70
2023/10/23 10:30:38;;;;;;;1.30;1.20;;;18.80;75.80;;;;;;5121508;27;20186;-71
2023/10/23 10:33:18;;;;;;;1.42;1.33;;;18.80;75.80;;;;;;5103335;27;20565;-71
2023/10/23 10:35:50;;;;;;;1.67;1.23;;;18.80;75.80;;;;;;5111179;27;20207;-70
2023/10/23 10:38:22;;;;;;;0.80;0.80;;;18.80;75.80;;;;;;5136313;27;20191;-71
2023/10/23 10:41:15;;;;;;;1.52;1.13;;;18.80;75.90;;;;;;5100356;27;20222;-71
2023/10/23 10:43:43;;;;;;;1.15;1.08;;;18.80;75.70;;;;;;5092924;27;20278;-71
2023/10/23 10:46:21;;;;;;;1.75;0.90;;;18.80;75.80;;;;;;5116743;27;20279;-70
2023/10/23 10:48:49;;;;;;;1.13;1.02;;;18.80;75.70;;;;;;5116892;27;20190;-71
2023/10/23 10:51:27;;;;;;;1.27;1.00;;;18.80;75.80;;;;;;5135056;27;20198;-70
2023/10/23 10:54:09;;;;;;;1.00;1.00;;;18.80;75.90;;;;;;5116653;27;20217;-70
2023/10/23 10:56:35;;;;;;;1.20;1.05;;;18.80;75.90;;;;;;5108919;27;20187;-69
2023/10/23 10:59:03;;;;;;;1.02;0.90;;;18.80;75.90;;;;;;5116752;27;20199;-70
2023/10/23 11:01:30;;;;;;;0.88;0.88;;;18.80;75.90;;;;;;5116023;27;20191;-70
2023/10/23 11:03:55;;;;;;;1.08;1.00;;;18.80;76.70;;;;;;5115861;27;20234;-70
2023/10/23 11:06:23;;;;;;;1.40;1.00;;;18.80;75.90;;;;;;5116418;27;20191;-70
2023/10/23 11:08:51;;;;;;;1.40;1.30;;;18.80;76.00;;;;;;5116451;27;20187;-71
2023/10/23 11:11:17;;;;;;;1.15;1.00;;;18.80;76.00;;;;;;5108854;27;20206;-70
2023/10/23 11:13:43;;;;;;;1.38;1.27;;;18.80;75.90;;;;;;5122839;27;20234;-71
2023/10/23 11:16:11;;;;;;;1.45;1.00;;;18.80;75.90;;;;;;5119718;27;20723;-71
2023/10/23 11:18:37;;;;;;;1.27;1.17;;;18.80;75.90;;;;;;5142000;27;20190;-71
2023/10/23 11:21:05;;;;;;;1.75;1.40;;;18.80;76.00;;;;;;5123820;27;20235;-71
2023/10/23 11:23:31;;;;;;;1.92;1.35;;;18.80;76.00;;;;;;5101866;27;20182;-71
2023/10/23 11:25:57;;;;;;;1.98;1.27;;;18.80;75.90;;;;;;5112569;27;20211;-71
2023/10/23 11:28:24;;;;;;;2.75;1.38;;;18.80;76.00;;;;;;5124962;27;20563;-71
2023/10/23 11:30:56;;;;;;;2.47;1.13;;;18.80;76.00;;;;;;5117216;27;20187;-71
2023/10/23 11:33:21;;;;;;;2.20;1.30;;;18.80;76.00;;;;;;5119688;27;20244;-71
2023/10/23 11:35:47;;;;;;;2.38;1.50;;;18.80;76.00;;;;;;5141737;27;20206;-71
2023/10/23 11:38:20;;;;;;;2.35;1.30;;;18.80;76.00;;;;;;5099852;27;20223;-71
2023/10/23 11:40:46;;;;;;;1.90;1.27;;;18.80;76.10;;;;;;5140768;27;20174;-71
2023/10/23 11:43:17;;;;;;;1.77;1.30;;;18.80;76.00;;;;;;5144414;27;20190;-71
2023/10/23 11:45:46;;;;;;;2.50;1.52;;;18.80;76.00;;;;;;5111109;27;20224;-70
2023/10/23 11:48:12;;;;;;;2.83;1.35;;;18.80;76.10;;;;;;5104853;27;20180;-70
2023/10/23 11:50:40;;;;;;;1.10;1.00;;;18.80;76.10;;;;;;5145349;27;20183;-70
2023/10/23 11:53:06;;;;;;;1.60;1.30;;;18.80;76.10;;;;;;5141490;27;20271;-71
2023/10/23 11:55:35;;;;;;;1.67;1.10;;;18.80;76.00;;;;;;5143961;27;20227;-71
2023/10/23 11:58:01;;;;;;;2.53;1.52;;;18.80;76.10;;;;;;5145115;27;20186;-70
2023/10/23 12:00:27;;;;;;;2.65;1.35;;;18.80;76.00;;;;;;5108052;27;20222;-71
2023/10/23 12:02:53;;;;;;;1.98;1.38;;;18.80;76.10;;;;;;5146074;27;20178;-71
2023/10/23 12:05:23;;;;;;;2.17;1.42;;;18.80;76.10;;;;;;5151534;27;20714;-70
2023/10/23 12:07:54;;;;;;;2.65;1.20;;;18.80;76.20;;;;;;5118578;27;20288;-71
2023/10/23 12:10:27;;;;;;;2.53;1.30;;;18.80;76.20;;;;;;5139021;27;20187;-70
2023/10/23 12:12:55;;;;;;;2.63;1.30;;;18.80;76.20;;;;;;5109115;27;20190;-71
2023/10/23 12:15:27;;;;;;;1.77;1.60;;;18.80;76.20;;;;;;5115410;27;20213;-71
2023/10/23 12:17:53;;;;;;;2.72;1.45;;;18.80;76.30;;;;;;5152029;27;20190;-70
2023/10/23 12:20:21;;;;;;;2.45;1.58;;;18.90;76.40;;;;;;5114772;27;20310;-70
2023/10/23 12:22:48;;;;;;;2.95;1.73;;;18.90;76.30;;;;;;5114653;27;20191;-71
2023/10/23 12:25:16;;;;;;;2.00;1.35;;;18.90;76.40;;;;;;5121132;27;20251;-71
2023/10/23 12:27:42;;;;;;;3.17;1.83;;;18.80;76.30;;;;;;5135916;27;20205;-71
2023/10/23 12:30:10;;;;;;;1.50;1.30;;;18.90;76.40;;;;;;5125463;27;20214;-70
2023/10/23 12:32:36;;;;;;;2.10;1.30;;;18.80;76.30;;;;;;5135636;27;20175;-70
2023/10/23 12:35:03;;;;;;;1.80;1.30;;;18.80;76.30;;;;;;5132639;27;20692;-71
2023/10/23 12:37:30;;;;;;;3.05;1.77;;;18.90;76.50;;;;;;5114852;27;20191;-68
2023/10/23 12:40:00;;;;;;;4.22;2.10;;;18.90;76.50;;;;;;5121679;27;20191;-69
2023/10/23 12:42:27;;;;;;;2.45;1.60;;;18.80;76.40;;;;;;5097237;27;20206;-68
2023/10/23 12:44:54;;;;;;;2.88;1.80;;;18.90;76.40;;;;;;5111204;28;20215;-69
2023/10/23 12:47:20;;;;;;;2.03;1.50;;;18.90;76.50;;;;;;5099073;27;20194;-69
2023/10/23 12:49:46;;;;;;;2.65;1.65;;;18.90;76.50;;;;;;5132898;27;20179;-69
2023/10/23 12:52:13;;;;;;;2.13;1.60;;;18.90;76.50;;;;;;5131698;27;20215;-68